PWSweather.com
Personal Weather Stations
Station Observations
WIKENOS15
47th Ave & 30th St, Kenosha, WI 53144

47th Ave & 30th StKenosha, WI 53144

Lat: 42.612, Lon: -87.866

Elevation: 697

Station Type: Oregon Scientific 100N

Latest ConditionsUpdated 9:45:01 AM CST Sunday, Nov 23, 2014
Currently Today's Max Today's Min Today's Average
Temperature 48.8°F9.3°C 50.2°F10.1°C 48.8°F9.3°C 49.7°F9.8°C
Dew Point 46.6°F8.1°C 48.4°F9.1°C 44.9°F7.2°C 47.1°F8.4°C
Winds 2.3 mph S3.7 kmh S 5.7 mph S9.2 kmh S - 3.2 mph 5.1 kmh
Wind Gusts 2.3 mph3.7 kmh 12.0 mph19.3 kmh - -
Humidity 92% 95% 83% 91%
Pressure 29.68 in1005.1 mb 29.80 in1009.1 mb 29.68 in1005.1 mb -
Precipitation - 0.01 in0.3 mm - -
Hour Temp Dew Point Humidity Winds Wind Gusts Pressure Precip Precip Rate Daily Precip Total
09:45 AM 48.8°F9.3°C 46.6°F8.1°C 92% 2.3 mph S3.7 kmh S 2.3 mph3.7 kmh 29.68 in1005.1 mb 0.01 in0.3 mm 0.04 in/hr1.0 mm/hr 0.01 in0.3 mm
09:30 AM 49.5°F9.7°C 46.4°F8.0°C 89% 4.0 mph SSW6.4 kmh SSW 4.5 mph7.2 kmh 29.68 in1005.1 mb 0.00 in0.0 mm 0.00 in/hr0.0 mm/hr 0.00 in0.0 mm
09:15 AM 49.4°F9.7°C 46.3°F7.9°C 89% 3.3 mph SSW5.3 kmh SSW 5.2 mph8.4 kmh 29.68 in1005.1 mb 0.00 in0.0 mm 0.00 in/hr0.0 mm/hr 0.00 in0.0 mm
09:00 AM 49.2°F9.6°C 46.1°F7.8°C 89% 2.3 mph SSW3.7 kmh SSW 4.5 mph7.2 kmh 29.69 in1005.4 mb 0.00 in0.0 mm 0.00 in/hr0.0 mm/hr 0.00 in0.0 mm
08:45 AM 49.1°F9.5°C 45.7°F7.6°C 88% 3.4 mph SW5.5 kmh SW 7.5 mph12.1 kmh 29.69 in1005.4 mb 0.00 in0.0 mm 0.00 in/hr0.0 mm/hr 0.00 in0.0 mm
08:30 AM 48.8°F9.3°C 45.4°F7.4°C 88% 5.7 mph S9.2 kmh S 8.2 mph13.2 kmh 29.70 in1005.8 mb 0.00 in0.0 mm 0.00 in/hr0.0 mm/hr 0.00 in0.0 mm
08:15 AM 48.9°F9.4°C 45.2°F7.3°C 87% 4.3 mph S6.9 kmh S 7.5 mph12.1 kmh 29.70 in1005.8 mb 0.00 in0.0 mm 0.00 in/hr0.0 mm/hr 0.00 in0.0 mm
08:00 AM 49.7°F9.8°C 45.3°F7.4°C 85% 4.0 mph SSW6.4 kmh SSW 6.8 mph10.9 kmh 29.71 in1006.1 mb 0.00 in0.0 mm 0.00 in/hr0.0 mm/hr 0.00 in0.0 mm
07:45 AM 49.9°F9.9°C 44.9°F7.2°C 83% 4.4 mph S7.1 kmh S 8.2 mph13.2 kmh 29.71 in1006.1 mb 0.00 in0.0 mm 0.00 in/hr0.0 mm/hr 0.00 in0.0 mm
07:30 AM 49.7°F9.8°C 45.4°F7.4°C 85% 3.4 mph SSW5.5 kmh SSW 6.8 mph10.9 kmh 29.70 in1005.8 mb 0.00 in0.0 mm 0.00 in/hr0.0 mm/hr 0.00 in0.0 mm
07:15 AM 49.6°F9.8°C 45.6°F7.6°C 86% 2.0 mph SW3.2 kmh SW 3.7 mph6.0 kmh 29.70 in1005.8 mb 0.00 in0.0 mm 0.00 in/hr0.0 mm/hr 0.00 in0.0 mm
07:00 AM 49.6°F9.8°C 45.9°F7.7°C 87% 2.2 mph SSE3.5 kmh SSE 4.5 mph7.2 kmh 29.70 in1005.8 mb 0.00 in0.0 mm 0.00 in/hr0.0 mm/hr 0.00 in0.0 mm
06:45 AM 49.6°F9.8°C 46.2°F7.9°C 88% 1.5 mph SSW2.4 kmh SSW 3.7 mph6.0 kmh 29.70 in1005.8 mb 0.00 in0.0 mm 0.00 in/hr0.0 mm/hr 0.00 in0.0 mm
06:30 AM 49.6°F9.8°C 46.5°F8.1°C 89% 2.3 mph S3.7 kmh S 3.0 mph4.8 kmh 29.70 in1005.8 mb 0.00 in0.0 mm 0.00 in/hr0.0 mm/hr 0.00 in0.0 mm
06:15 AM 49.5°F9.7°C 46.4°F8.0°C 89% 2.0 mph SW3.2 kmh SW 3.0 mph4.8 kmh 29.69 in1005.4 mb 0.00 in0.0 mm 0.00 in/hr0.0 mm/hr 0.00 in0.0 mm
06:00 AM 49.7°F9.8°C 46.9°F8.3°C 90% 2.5 mph SSW4.0 kmh SSW 6.0 mph9.7 kmh 29.71 in1006.1 mb 0.00 in0.0 mm 0.00 in/hr0.0 mm/hr 0.00 in0.0 mm
05:45 AM 49.9°F9.9°C 47.4°F8.6°C 91% 1.8 mph SW2.9 kmh SW 3.0 mph4.8 kmh 29.70 in1005.8 mb 0.00 in0.0 mm 0.00 in/hr0.0 mm/hr 0.00 in0.0 mm
05:30 AM 49.7°F9.8°C 47.8°F8.8°C 93% 2.4 mph SSW3.9 kmh SSW 6.0 mph9.7 kmh 29.72 in1006.4 mb 0.00 in0.0 mm 0.00 in/hr0.0 mm/hr 0.00 in0.0 mm
05:15 AM 49.6°F9.8°C 47.9°F8.8°C 94% 3.7 mph S6.0 kmh S 6.8 mph10.9 kmh 29.71 in1006.1 mb 0.00 in0.0 mm 0.00 in/hr0.0 mm/hr 0.00 in0.0 mm
05:00 AM 49.4°F9.7°C 48.0°F8.9°C 95% 2.5 mph S4.0 kmh S 4.5 mph7.2 kmh 29.72 in1006.4 mb 0.00 in0.0 mm 0.00 in/hr0.0 mm/hr 0.00 in0.0 mm
04:45 AM 49.4°F9.7°C 48.0°F8.9°C 95% 2.4 mph SSW3.9 kmh SSW 4.5 mph7.2 kmh 29.72 in1006.4 mb 0.00 in0.0 mm 0.00 in/hr0.0 mm/hr 0.00 in0.0 mm
04:30 AM 49.6°F9.8°C 48.2°F9.0°C 95% 2.6 mph S4.2 kmh S 5.2 mph8.4 kmh 29.73 in1006.8 mb 0.00 in0.0 mm 0.00 in/hr0.0 mm/hr 0.00 in0.0 mm
04:15 AM 49.9°F9.9°C 48.3°F9.1°C 94% 3.0 mph SW4.8 kmh SW 6.8 mph10.9 kmh 29.73 in1006.8 mb 0.00 in0.0 mm 0.00 in/hr0.0 mm/hr 0.00 in0.0 mm
04:00 AM 50.0°F10.0°C 48.3°F9.1°C 94% 4.2 mph SSW6.8 kmh SSW 7.5 mph12.1 kmh 29.73 in1006.8 mb 0.00 in0.0 mm 0.00 in/hr0.0 mm/hr 0.00 in0.0 mm
03:45 AM 49.9°F9.9°C 48.2°F9.0°C 94% 2.1 mph SW3.4 kmh SW 4.5 mph7.2 kmh 29.73 in1006.8 mb 0.00 in0.0 mm 0.00 in/hr0.0 mm/hr 0.00 in0.0 mm
03:30 AM 50.1°F10.1°C 48.4°F9.1°C 94% 3.8 mph S6.1 kmh S 5.2 mph8.4 kmh 29.73 in1006.8 mb 0.00 in0.0 mm 0.00 in/hr0.0 mm/hr 0.00 in0.0 mm
03:15 AM 49.9°F9.9°C 48.0°F8.9°C 93% 3.7 mph S6.0 kmh S 12.0 mph19.3 kmh 29.74 in1007.1 mb 0.00 in0.0 mm 0.00 in/hr0.0 mm/hr 0.00 in0.0 mm
03:00 AM 50.0°F10.0°C 48.1°F8.9°C 93% 5.1 mph SSW8.2 kmh SSW 9.0 mph14.5 kmh 29.74 in1007.1 mb 0.00 in0.0 mm 0.00 in/hr0.0 mm/hr 0.00 in0.0 mm
02:45 AM 50.0°F10.0°C 48.1°F8.9°C 93% 3.6 mph S5.8 kmh S 6.8 mph10.9 kmh 29.75 in1007.5 mb 0.00 in0.0 mm 0.00 in/hr0.0 mm/hr 0.00 in0.0 mm
02:30 AM 50.1°F10.1°C 48.2°F9.0°C 93% 5.5 mph SW8.9 kmh SW 8.2 mph13.2 kmh 29.76 in1007.8 mb 0.00 in0.0 mm 0.00 in/hr0.0 mm/hr 0.00 in0.0 mm
02:15 AM 50.1°F10.1°C 48.2°F9.0°C 93% 3.0 mph SW4.8 kmh SW 4.5 mph7.2 kmh 29.76 in1007.8 mb 0.00 in0.0 mm 0.00 in/hr0.0 mm/hr 0.00 in0.0 mm
02:00 AM 49.9°F9.9°C 47.7°F8.7°C 92% 2.6 mph S4.2 kmh S 5.2 mph8.4 kmh 29.76 in1007.8 mb 0.00 in0.0 mm 0.00 in/hr0.0 mm/hr 0.00 in0.0 mm
01:45 AM 50.0°F10.0°C 47.7°F8.7°C 92% 2.4 mph S3.9 kmh S 4.5 mph7.2 kmh 29.76 in1007.8 mb 0.00 in0.0 mm 0.00 in/hr0.0 mm/hr 0.00 in0.0 mm
01:30 AM 50.1°F10.1°C 47.8°F8.8°C 92% 2.9 mph SW4.7 kmh SW 6.0 mph9.7 kmh 29.77 in1008.1 mb 0.00 in0.0 mm 0.00 in/hr0.0 mm/hr 0.00 in0.0 mm
01:15 AM 49.8°F9.9°C 47.3°F8.5°C 91% 4.1 mph SSW6.6 kmh SSW 6.0 mph9.7 kmh 29.77 in1008.1 mb 0.00 in0.0 mm 0.00 in/hr0.0 mm/hr 0.00 in0.0 mm
01:00 AM 49.9°F9.9°C 47.4°F8.6°C 91% 4.4 mph SW7.1 kmh SW 7.5 mph12.1 kmh 29.78 in1008.5 mb 0.00 in0.0 mm 0.00 in/hr0.0 mm/hr 0.00 in0.0 mm
12:45 AM 50.2°F10.1°C 47.7°F8.7°C 91% 3.9 mph SSW6.3 kmh SSW 5.2 mph8.4 kmh 29.78 in1008.5 mb 0.00 in0.0 mm 0.00 in/hr0.0 mm/hr 0.00 in0.0 mm
12:30 AM 49.9°F9.9°C 47.4°F8.6°C 91% 2.7 mph SSW4.3 kmh SSW 8.2 mph13.2 kmh 29.79 in1008.8 mb 0.00 in0.0 mm 0.00 in/hr0.0 mm/hr 0.00 in0.0 mm
12:15 AM 49.6°F9.8°C 47.1°F8.4°C 91% 3.8 mph SSW6.1 kmh SSW 5.2 mph8.4 kmh 29.80 in1009.1 mb 0.00 in0.0 mm 0.00 in/hr0.0 mm/hr 0.00 in0.0 mm
12:00 AM 49.4°F9.7°C 46.9°F8.3°C 91% 3.4 mph SW5.5 kmh SW 5.2 mph8.4 kmh 29.80 in1009.1 mb 0.00 in0.0 mm 0.00 in/hr0.0 mm/hr 0.00 in0.0 mm